Time;durP1;ratioP1;P1;durP2;ratioP2;P2;SDS_P1;SDS_P2;PMS_P1;PMS_P2;Temp;Humidity;BMP_temperature;BMP_pressure;BME280_temperature;BME280_humidity;BME280_pressure;Samples;Min_cycle;Max_cycle;Signal;HPM_P1;HPM_P2
2024/01/13 00:02:12;;;;;;;82.90;76.78;;;;;;;-3.10;100.00;101773.78;5043917;28;20045;-56
2024/01/13 00:04:42;;;;;;;93.93;87.60;;;;;;;-2.90;100.00;101772.59;5045781;28;20570;-56
2024/01/13 00:07:12;;;;;;;80.15;74.03;;;;;;;-3.04;100.00;101773.41;5045205;28;20060;-56
2024/01/13 00:09:39;;;;;;;76.75;70.93;;;;;;;-3.03;100.00;101777.69;5045611;28;20057;-62
2024/01/13 00:12:07;;;;;;;72.90;67.72;;;;;;;-3.08;100.00;101776.31;5046458;28;20427;-56
2024/01/13 00:14:34;;;;;;;74.65;69.07;;;;;;;-3.12;100.00;101772.22;5037114;28;20056;-56
2024/01/13 00:17:01;;;;;;;74.05;68.30;;;;;;;-3.25;100.00;101769.50;5045432;28;20049;-56
2024/01/13 00:19:28;;;;;;;76.70;71.50;;;;;;;-3.24;100.00;101774.63;5045429;28;20057;-56
2024/01/13 00:21:54;;;;;;;68.55;62.70;;;;;;;-3.03;100.00;101769.88;5045039;28;20056;-56
2024/01/13 00:24:23;;;;;;;63.88;59.53;;;;;;;-3.19;100.00;101769.13;5044179;28;20414;-63
2024/01/13 00:26:50;;;;;;;72.57;67.38;;;;;;;-3.20;100.00;101769.25;5046993;28;20052;-62
2024/01/13 00:29:16;;;;;;;75.57;70.30;;;;;;;-3.16;100.00;101781.13;5045978;28;20052;-63
2024/01/13 00:31:43;;;;;;;68.53;63.80;;;;;;;-3.28;100.00;101775.72;5046581;28;20529;-62
2024/01/13 00:34:13;;;;;;;71.53;67.00;;;;;;;-3.10;100.00;101773.78;5040095;28;20053;-56
2024/01/13 00:36:40;;;;;;;72.80;68.30;;;;;;;-3.14;100.00;101771.47;5044622;28;20405;-56
2024/01/13 00:39:07;;;;;;;75.95;71.35;;;;;;;-3.09;100.00;101779.81;5045950;28;20045;-62
2024/01/13 00:41:35;;;;;;;65.63;61.53;;;;;;;-2.89;100.00;101787.25;5045838;28;20502;-56
2024/01/13 00:44:02;;;;;;;53.60;50.30;;;;;;;-3.11;100.00;101777.31;5045066;28;20118;-56
2024/01/13 00:46:29;;;;;;;60.50;56.55;;;;;;;-3.18;100.00;101778.59;5040844;28;20045;-63
2024/01/13 00:48:56;;;;;;;57.63;53.92;;;;;;;-3.07;100.00;101789.19;5041354;28;20060;-62
2024/01/13 00:51:22;;;;;;;64.72;60.83;;;;;;;-2.76;100.00;101789.97;5049881;28;20049;-62
2024/01/13 00:53:49;;;;;;;61.85;58.05;;;;;;;-3.12;100.00;101785.19;5050172;28;20048;-56
2024/01/13 00:56:16;;;;;;;64.78;60.65;;;;;;;-3.13;100.00;101799.97;5048814;28;20049;-62
2024/01/13 00:58:44;;;;;;;58.25;54.33;;;;;;;-3.00;100.00;101800.06;5045863;28;20073;-63
2024/01/13 01:01:11;;;;;;;60.08;56.38;;;;;;;-3.13;100.00;101799.97;5047807;28;20056;-56
2024/01/13 01:03:38;;;;;;;65.40;60.78;;;;;;;-3.09;100.00;101800.63;5049270;28;20053;-56
2024/01/13 01:06:05;;;;;;;58.00;54.40;;;;;;;-2.92;100.00;101784.03;5048672;28;20053;-55
2024/01/13 01:08:32;;;;;;;56.25;52.33;;;;;;;-2.98;100.00;101794.78;5049716;28;20076;-63
2024/01/13 01:10:59;;;;;;;52.17;48.88;;;;;;;-2.89;100.00;101787.25;5049835;28;20049;-62
2024/01/13 01:13:26;;;;;;;55.53;51.80;;;;;;;-3.11;100.00;101786.91;5049473;28;20060;-56
2024/01/13 01:15:54;;;;;;;52.88;48.88;;;;;;;-3.22;100.00;101784.91;5043617;28;20060;-56
2024/01/13 01:18:21;;;;;;;52.42;49.03;;;;;;;-3.11;100.00;101792.91;5048957;28;20145;-56
2024/01/13 01:20:48;;;;;;;52.60;49.30;;;;;;;-2.60;100.00;101790.72;5046468;28;20057;-56
2024/01/13 01:23:15;;;;;;;45.70;42.90;;;;;;;-3.22;100.00;101783.16;5049048;28;20056;-55
2024/01/13 01:25:42;;;;;;;44.70;41.90;;;;;;;-2.81;100.00;101786.81;5048721;28;20407;-56
2024/01/13 01:28:08;;;;;;;42.40;39.97;;;;;;;-3.15;100.00;101770.63;5048939;28;20064;-63
2024/01/13 01:30:35;;;;;;;43.92;41.33;;;;;;;-3.30;100.00;101769.78;5049521;28;20045;-62
2024/01/13 01:33:04;;;;;;;45.67;42.83;;;;;;;-3.08;100.00;101769.34;5050136;28;20437;-62
2024/01/13 01:35:31;;;;;;;43.35;40.75;;;;;;;-3.27;100.00;101771.34;5048770;28;20438;-63
2024/01/13 01:37:58;;;;;;;42.75;40.00;;;;;;;-2.96;100.00;101770.38;5045925;28;20056;-63
2024/01/13 01:40:27;;;;;;;43.03;40.33;;;;;;;-3.21;100.00;101765.78;5049565;28;20498;-56
2024/01/13 01:42:54;;;;;;;39.20;36.90;;;;;;;-3.27;100.00;101756.63;5046731;28;20807;-56
2024/01/13 01:45:21;;;;;;;39.50;36.90;;;;;;;-3.31;100.00;101765.50;5048031;28;20049;-57
2024/01/13 01:47:49;;;;;;;40.13;37.63;;;;;;;-3.27;100.00;101763.56;5048115;28;20100;-62
2024/01/13 01:50:18;;;;;;;38.65;36.33;;;;;;;-3.17;100.00;101769.91;5048782;28;20147;-56
2024/01/13 01:52:45;;;;;;;43.20;40.40;;;;;;;-3.22;100.00;101774.53;5049256;28;20060;-63
2024/01/13 01:55:12;;;;;;;41.53;38.88;;;;;;;-3.12;100.00;101762.63;5049109;28;20056;-63
2024/01/13 01:57:39;;;;;;;41.78;39.08;;;;;;;-3.19;100.00;101757.91;5049026;28;20053;-63
2024/01/13 02:00:08;;;;;;;40.67;38.10;;;;;;;-3.18;100.00;101762.19;5047801;28;20620;-55
2024/01/13 02:02:36;;;;;;;42.80;39.20;;;;;;;-3.14;100.00;101754.13;5040363;28;20057;-62
2024/01/13 02:05:03;;;;;;;41.78;38.97;;;;;;;-3.20;100.00;101745.84;5049526;28;20063;-62
2024/01/13 02:07:33;;;;;;;43.00;40.30;;;;;;;-3.41;100.00;101751.41;5049514;28;20722;-62
2024/01/13 02:10:00;;;;;;;42.30;39.70;;;;;;;-3.14;100.00;101741.13;5048640;28;20143;-56
2024/01/13 02:12:28;;;;;;;35.63;33.20;;;;;;;-3.27;100.00;101738.44;5047929;28;20053;-62
2024/01/13 02:14:55;;;;;;;36.40;33.63;;;;;;;-2.74;100.00;101733.50;5044076;28;20141;-62
2024/01/13 02:17:22;;;;;;;35.25;32.90;;;;;;;-3.28;100.00;101735.91;5048918;28;20114;-62
2024/01/13 02:19:49;;;;;;;36.50;34.00;;;;;;;-3.25;100.00;101731.34;5048921;28;20049;-62
2024/01/13 02:22:17;;;;;;;34.75;32.45;;;;;;;-3.09;100.00;101740.84;5044185;28;20052;-62
2024/01/13 02:24:44;;;;;;;33.58;31.30;;;;;;;-3.31;100.00;101734.31;5047570;28;20053;-56
2024/01/13 02:27:11;;;;;;;38.33;35.55;;;;;;;-3.33;100.00;101738.78;5047798;28;20581;-55
2024/01/13 02:29:38;;;;;;;35.30;32.80;;;;;;;-3.42;100.00;101731.50;5048786;28;20048;-62
2024/01/13 02:32:05;;;;;;;33.40;30.80;;;;;;;-3.51;100.00;101743.31;5049059;28;20497;-62
2024/01/13 02:34:32;;;;;;;35.35;32.72;;;;;;;-3.49;100.00;101741.44;5047711;28;20502;-56
2024/01/13 02:36:58;;;;;;;36.30;33.92;;;;;;;-3.20;100.00;101735.47;5046953;28;20056;-56
2024/01/13 02:39:27;;;;;;;32.50;30.40;;;;;;;-3.48;100.00;101732.75;5047993;28;20063;-62
2024/01/13 02:41:54;;;;;;;33.65;31.42;;;;;;;-3.47;100.00;101739.59;5046878;28;20135;-62
2024/01/13 02:44:22;;;;;;;30.35;28.45;;;;;;;-3.38;100.00;101740.81;5046423;28;20053;-56
2024/01/13 02:46:49;;;;;;;27.92;25.88;;;;;;;-3.56;100.00;101727.16;5047936;28;20037;-63
2024/01/13 02:49:17;;;;;;;29.77;27.85;;;;;;;-3.64;100.00;101726.75;5048237;28;20053;-56
2024/01/13 02:51:43;;;;;;;29.83;27.85;;;;;;;-3.26;100.00;101737.50;5048177;28;20080;-56
2024/01/13 02:54:13;;;;;;;28.98;27.17;;;;;;;-3.64;100.00;101731.13;5047859;28;20541;-56
2024/01/13 02:56:41;;;;;;;30.35;28.38;;;;;;;-3.56;100.00;101740.13;5047286;28;20051;-55
2024/01/13 02:59:08;;;;;;;29.13;27.20;;;;;;;-2.98;100.00;101742.81;5047335;28;20075;-56
2024/01/13 03:01:35;;;;;;;29.52;27.40;;;;;;;-3.46;100.00;101743.84;5047054;28;20438;-55
2024/01/13 03:04:02;;;;;;;32.85;30.65;;;;;;;-3.00;100.00;101751.50;5047826;28;20052;-63
2024/01/13 03:06:29;;;;;;;30.15;28.35;;;;;;;-3.45;100.00;101739.50;5047409;28;20053;-63
2024/01/13 03:08:57;;;;;;;31.70;29.60;;;;;;;-3.17;100.00;101736.13;5048727;28;20442;-62
2024/01/13 03:11:26;;;;;;;30.10;28.10;;;;;;;-2.79;100.00;101732.94;5046832;28;20061;-57
2024/01/13 03:13:54;;;;;;;34.38;31.60;;;;;;;-3.54;100.00;101724.44;5047667;28;20045;-56
2024/01/13 03:16:21;;;;;;;31.85;29.85;;;;;;;-3.19;100.00;101731.94;5041909;28;20049;-56
2024/01/13 03:18:48;;;;;;;26.90;24.55;;;;;;;-3.34;100.00;101731.06;5046935;28;20048;-55
2024/01/13 03:21:15;;;;;;;29.20;27.40;;;;;;;-2.69;100.00;101728.84;5046597;28;20045;-56
2024/01/13 03:23:42;;;;;;;26.83;25.02;;;;;;;-3.60;100.00;101714.41;5046476;28;20514;-56
2024/01/13 03:26:09;;;;;;;32.17;29.48;;;;;;;-3.69;100.00;101710.63;5043895;28;20509;-62
2024/01/13 03:28:35;;;;;;;28.15;26.35;;;;;;;-2.88;100.00;101705.72;5047611;28;20638;-63
2024/01/13 03:31:04;;;;;;;28.40;26.50;;;;;;;-3.53;100.00;101718.34;5043669;28;20060;-56
2024/01/13 03:33:31;;;;;;;29.10;27.08;;;;;;;-2.61;100.00;101712.75;5046638;28;20135;-62
2024/01/13 03:35:58;;;;;;;36.72;27.58;;;;;;;-3.76;100.00;101704.94;5047090;28;20052;-62
2024/01/13 03:38:26;;;;;;;34.35;32.13;;;;;;;-3.96;100.00;101698.31;5047670;28;20044;-62
2024/01/13 03:40:53;;;;;;;27.25;25.42;;;;;;;-3.47;100.00;101699.81;5046886;28;20102;-56
2024/01/13 03:43:20;;;;;;;27.98;26.08;;;;;;;-2.44;100.00;101694.31;5047387;28;20052;-62
2024/01/13 03:45:47;;;;;;;27.67;25.83;;;;;;;-3.97;100.00;101688.00;5046852;28;20498;-62
2024/01/13 03:48:15;;;;;;;26.77;25.08;;;;;;;-3.87;100.00;101683.97;5047030;28;20515;-56
2024/01/13 03:50:42;;;;;;;31.70;29.60;;;;;;;-3.88;100.00;101682.28;5046301;28;20269;-56
2024/01/13 03:53:09;;;;;;;28.92;26.92;;;;;;;-3.59;100.00;101685.78;5046442;28;20064;-56
2024/01/13 03:55:36;;;;;;;28.48;26.48;;;;;;;-3.71;100.00;101692.53;5045181;28;20529;-62
2024/01/13 03:58:03;;;;;;;26.73;25.02;;;;;;;-3.96;100.00;101681.91;5046365;28;20076;-62
2024/01/13 04:00:30;;;;;;;31.10;29.17;;;;;;;-3.89;100.00;101696.19;5046941;28;20502;-56
2024/01/13 04:02:57;;;;;;;31.67;29.58;;;;;;;-4.10;100.00;101687.88;5046145;28;20049;-62
2024/01/13 04:05:25;;;;;;;30.65;28.75;;;;;;;-4.14;100.00;101691.56;5046798;28;20057;-62
2024/01/13 04:07:52;;;;;;;30.38;28.48;;;;;;;-4.18;100.00;101690.06;5046586;28;20052;-56
2024/01/13 04:10:19;;;;;;;25.77;24.08;;;;;;;-4.25;100.00;101691.34;5046845;28;20059;-56
2024/01/13 04:12:46;;;;;;;27.27;25.48;;;;;;;-4.01;100.00;101691.69;5043754;28;20045;-56
2024/01/13 04:15:13;;;;;;;29.73;27.65;;;;;;;-3.57;100.00;101696.91;5040443;28;20048;-56
2024/01/13 04:17:40;;;;;;;30.45;27.92;;;;;;;-4.11;100.00;101688.81;5045968;28;20559;-56
2024/01/13 04:20:08;;;;;;;26.92;25.33;;;;;;;-4.11;100.00;101693.13;5046291;28;20522;-55
2024/01/13 04:22:36;;;;;;;25.27;23.67;;;;;;;-4.14;100.00;101686.38;5046330;28;20048;-63
2024/01/13 04:25:03;;;;;;;26.40;24.90;;;;;;;-4.28;100.00;101697.53;5044970;28;20049;-56
2024/01/13 04:27:30;;;;;;;27.92;25.80;;;;;;;-4.28;100.00;101688.91;5046687;28;20052;-62
2024/01/13 04:29:56;;;;;;;26.05;24.30;;;;;;;-3.98;100.00;101696.72;5045934;28;20049;-56
2024/01/13 04:32:23;;;;;;;22.80;21.40;;;;;;;-4.29;100.00;101687.25;5040449;28;20533;-56
2024/01/13 04:34:50;;;;;;;27.13;25.52;;;;;;;-4.38;100.00;101686.84;5046134;28;20049;-56
2024/01/13 04:37:17;;;;;;;28.40;26.70;;;;;;;-4.40;100.00;101680.88;5045898;28;20052;-62
2024/01/13 04:39:45;;;;;;;25.98;24.17;;;;;;;-4.46;100.00;101689.00;5046446;28;20053;-56
2024/01/13 04:42:12;;;;;;;28.48;26.75;;;;;;;-4.51;100.00;101683.22;5046440;28;20048;-62
2024/01/13 04:44:39;;;;;;;27.25;25.55;;;;;;;-4.54;100.00;101683.41;5047164;28;20060;-62
2024/01/13 04:47:06;;;;;;;28.70;27.00;;;;;;;-4.50;100.00;101677.16;5046531;28;20049;-56
2024/01/13 04:49:35;;;;;;;28.77;27.02;;;;;;;-4.55;100.00;101671.38;5045367;28;20075;-61
2024/01/13 04:52:02;;;;;;;29.88;27.92;;;;;;;-4.61;100.00;101680.31;5045498;28;20524;-56
2024/01/13 04:54:29;;;;;;;30.92;28.65;;;;;;;-4.64;100.00;101684.84;5045219;28;20056;-56
2024/01/13 04:56:57;;;;;;;28.83;27.02;;;;;;;-4.67;100.00;101678.06;5043920;28;20041;-63
2024/01/13 04:59:24;;;;;;;27.70;25.75;;;;;;;-4.61;100.00;101684.66;5043891;28;20056;-56
2024/01/13 05:01:51;;;;;;;30.33;28.38;;;;;;;-4.87;100.00;101678.31;5045302;28;20049;-56
2024/01/13 05:04:18;;;;;;;31.75;28.98;;;;;;;-4.76;100.00;101683.75;5046040;28;20084;-56
2024/01/13 05:06:45;;;;;;;27.42;25.45;;;;;;;-4.77;100.00;101681.25;5042611;28;20426;-56
2024/01/13 05:09:12;;;;;;;25.42;23.60;;;;;;;-4.96;100.00;101686.56;5045128;28;20061;-56
2024/01/13 05:11:39;;;;;;;27.08;25.02;;;;;;;-4.35;100.00;101675.47;5046190;28;20056;-62
2024/01/13 05:14:07;;;;;;;28.30;26.42;;;;;;;-4.93;100.00;101670.84;5046363;28;20443;-56
2024/01/13 05:16:34;;;;;;;27.63;25.77;;;;;;;-4.97;100.00;101680.56;5040526;28;20048;-62
2024/01/13 05:19:00;;;;;;;26.38;24.67;;;;;;;-5.08;100.00;101673.38;5041262;28;20049;-62
2024/01/13 05:21:27;;;;;;;28.95;26.58;;;;;;;-5.15;100.00;101671.16;5045589;28;20052;-56
2024/01/13 05:23:54;;;;;;;26.20;24.30;;;;;;;-5.18;100.00;101677.34;5045405;28;20500;-56
2024/01/13 05:26:21;;;;;;;24.05;22.35;;;;;;;-5.28;100.00;101676.16;5042806;28;20049;-55
2024/01/13 05:28:48;;;;;;;29.63;27.63;;;;;;;-5.27;100.00;101680.41;5045277;28;20578;-56
2024/01/13 05:31:17;;;;;;;27.73;25.73;;;;;;;-5.30;100.00;101683.16;5045567;28;20052;-56
2024/01/13 05:33:43;;;;;;;29.95;27.00;;;;;;;-5.22;100.00;101680.19;5045313;28;20142;-56
2024/01/13 05:36:10;;;;;;;27.98;25.52;;;;;;;-5.25;100.00;101676.00;5048385;28;20589;-56
2024/01/13 05:38:37;;;;;;;27.70;25.90;;;;;;;-5.68;100.00;101688.56;5049170;28;20525;-56
2024/01/13 05:41:04;;;;;;;28.05;26.27;;;;;;;-5.51;100.00;101677.34;5049664;28;20434;-62
2024/01/13 05:43:31;;;;;;;26.95;25.13;;;;;;;-5.67;100.00;101682.47;5050212;28;20056;-63
2024/01/13 05:45:58;;;;;;;28.25;26.45;;;;;;;-5.60;100.00;101680.41;5050136;28;20467;-63
2024/01/13 05:48:26;;;;;;;24.58;22.98;;;;;;;-5.60;100.00;101678.69;5046792;28;20041;-63
2024/01/13 05:50:53;;;;;;;27.33;25.25;;;;;;;-5.59;100.00;101679.50;5049760;28;20056;-56
2024/01/13 05:53:20;;;;;;;28.90;26.58;;;;;;;-5.57;100.00;101678.53;5039518;28;20053;-63
2024/01/13 05:55:47;;;;;;;24.98;23.45;;;;;;;-5.60;100.00;101686.44;5046953;28;20052;-62
2024/01/13 05:58:13;;;;;;;26.58;24.75;;;;;;;-5.52;100.00;101691.22;5049538;28;20056;-63
2024/01/13 06:00:42;;;;;;;25.67;23.75;;;;;;;-5.55;100.00;101697.38;5049466;28;20541;-63
2024/01/13 06:03:09;;;;;;;25.85;23.60;;;;;;;-5.57;100.00;101701.81;5049419;28;20057;-56
2024/01/13 06:05:38;;;;;;;25.08;23.42;;;;;;;-5.54;100.00;101695.63;5048618;28;20475;-56
2024/01/13 06:08:06;;;;;;;25.25;23.55;;;;;;;-5.49;100.00;101709.19;5049113;28;20040;-62
2024/01/13 06:10:34;;;;;;;25.40;23.55;;;;;;;-5.42;100.00;101715.72;5045269;28;20045;-62
2024/01/13 06:13:01;;;;;;;22.90;21.40;;;;;;;-5.28;100.00;101715.03;5050195;28;20115;-62
2024/01/13 06:15:29;;;;;;;22.88;21.13;;;;;;;-5.23;100.00;101718.22;5037423;28;20269;-55
2024/01/13 06:17:55;;;;;;;23.90;22.35;;;;;;;-5.14;100.00;101717.72;5047506;28;20126;-56
2024/01/13 06:20:22;;;;;;;27.50;25.25;;;;;;;-5.03;100.00;101711.97;5047831;28;20056;-56
2024/01/13 06:22:50;;;;;;;25.75;24.05;;;;;;;-5.01;100.00;101710.16;5047789;28;20882;-55
2024/01/13 06:25:17;;;;;;;26.45;24.58;;;;;;;-4.99;100.00;101715.22;5047967;28;20466;-56
2024/01/13 06:27:44;;;;;;;23.98;22.50;;;;;;;-4.87;100.00;101709.41;5048054;28;20106;-56
2024/01/13 06:30:12;;;;;;;23.50;22.00;;;;;;;-4.91;100.00;101728.63;5047296;28;20064;-56
2024/01/13 06:32:42;;;;;;;25.35;23.55;;;;;;;-4.90;100.00;101722.53;5048284;28;20477;-56
2024/01/13 06:35:11;;;;;;;23.23;21.83;;;;;;;-4.88;100.00;101718.09;5046176;28;20052;-56
2024/01/13 06:37:38;;;;;;;22.35;20.63;;;;;;;-4.81;100.00;101721.19;5047293;28;20041;-56
2024/01/13 06:40:08;;;;;;;30.00;27.05;;;;;;;-4.91;100.00;101723.44;5038766;28;20058;-56
2024/01/13 06:42:35;;;;;;;31.92;29.30;;;;;;;-4.73;100.00;101724.22;5046571;28;20057;-55
2024/01/13 06:45:02;;;;;;;26.50;24.77;;;;;;;-4.71;100.00;101727.59;5045630;28;20584;-56
2024/01/13 06:47:29;;;;;;;24.17;22.67;;;;;;;-4.61;100.00;101720.97;5047859;28;20045;-62
2024/01/13 06:49:56;;;;;;;21.92;20.63;;;;;;;-4.60;100.00;101725.22;5049427;28;20433;-62
2024/01/13 06:52:23;;;;;;;27.00;24.60;;;;;;;-4.75;100.00;101726.06;5038937;28;20049;-56
2024/01/13 06:54:50;;;;;;;27.40;25.48;;;;;;;-4.51;100.00;101724.72;5047594;28;20056;-63
2024/01/13 06:57:18;;;;;;;22.35;20.75;;;;;;;-4.57;100.00;101719.03;5047618;28;20487;-62
2024/01/13 06:59:45;;;;;;;23.20;21.58;;;;;;;-4.67;100.00;101718.72;5043874;28;20518;-56
2024/01/13 07:02:12;;;;;;;21.25;19.95;;;;;;;-4.57;100.00;101713.84;5048283;28;20064;-63
2024/01/13 07:04:39;;;;;;;25.33;23.75;;;;;;;-4.53;100.00;101718.81;5048144;28;20430;-56
2024/01/13 07:07:06;;;;;;;29.23;26.33;;;;;;;-4.67;100.00;101710.94;5045342;28;20049;-55
2024/01/13 07:09:34;;;;;;;25.98;24.30;;;;;;;-4.33;100.00;101707.31;5045327;28;20174;-63
2024/01/13 07:12:02;;;;;;;27.05;25.00;;;;;;;-4.39;100.00;101707.66;5044071;28;20527;-63
2024/01/13 07:14:32;;;;;;;24.23;22.73;;;;;;;-3.42;100.00;101710.72;5047469;28;20056;-62
2024/01/13 07:16:59;;;;;;;21.30;19.90;;;;;;;-3.43;100.00;101709.06;5037411;28;20144;-62
2024/01/13 07:19:25;;;;;;;23.25;21.85;;;;;;;-3.76;100.00;101711.88;5039373;28;20466;-56
2024/01/13 07:21:53;;;;;;;22.92;21.23;;;;;;;-4.07;100.00;101705.84;5043589;28;20041;-62
2024/01/13 07:24:20;;;;;;;22.48;21.00;;;;;;;-3.33;100.00;101707.63;5047590;28;20570;-63
2024/01/13 07:26:47;;;;;;;26.70;24.83;;;;;;;-2.41;100.00;101716.72;5043527;28;20045;-63
2024/01/13 07:29:14;;;;;;;24.92;22.73;;;;;;;-2.47;100.00;101710.13;5042973;28;20553;-56
2024/01/13 07:31:42;;;;;;;23.63;22.17;;;;;;;-2.86;100.00;101711.69;5042589;28;20060;-56
2024/01/13 07:34:11;;;;;;;24.27;22.30;;;;;;;-3.05;100.00;101706.78;5046526;28;20045;-63
2024/01/13 07:36:38;;;;;;;24.50;22.85;;;;;;;-3.42;100.00;101696.91;5045680;28;20136;-63
2024/01/13 07:39:09;;;;;;;24.77;23.40;;;;;;;-3.47;100.00;101700.63;5045541;28;20656;-63
2024/01/13 07:41:36;;;;;;;25.20;23.60;;;;;;;-3.06;100.00;101701.66;5045045;28;20491;-62
2024/01/13 07:44:03;;;;;;;22.83;20.88;;;;;;;-3.15;100.00;101692.66;5046119;28;20603;-62
2024/01/13 07:46:30;;;;;;;20.55;19.25;;;;;;;-2.62;100.00;101700.69;5045283;28;20063;-63
2024/01/13 07:48:58;;;;;;;21.48;20.15;;;;;;;-2.98;100.00;101699.44;5045563;28;20053;-56
2024/01/13 07:51:25;;;;;;;21.42;20.13;;;;;;;-1.81;100.00;101697.22;5045088;28;20053;-56
2024/01/13 07:53:52;;;;;;;27.48;25.55;;;;;;;-2.14;100.00;101696.72;5042575;28;20068;-56
2024/01/13 07:56:19;;;;;;;22.40;20.95;;;;;;;-2.73;100.00;101698.75;5044603;28;20045;-56
2024/01/13 07:58:46;;;;;;;28.73;26.92;;;;;;;-2.14;100.00;101694.13;5042333;28;20101;-62
2024/01/13 08:01:13;;;;;;;28.40;26.50;;;;;;;-2.21;100.00;101695.47;5043530;28;20135;-63
2024/01/13 08:03:40;;;;;;;27.25;25.45;;;;;;;-0.85;100.00;101688.00;5046735;28;20064;-61
2024/01/13 08:06:09;;;;;;;26.00;23.95;;;;;;;-2.70;100.00;101701.16;5045607;28;20640;-54
2024/01/13 08:08:35;;;;;;;26.38;24.77;;;;;;;-1.48;100.00;101689.75;5046475;28;20371;-55
2024/01/13 08:11:02;;;;;;;23.75;22.15;;;;;;;-2.28;100.00;101688.13;5043796;28;20049;-55
2024/01/13 08:13:30;;;;;;;25.88;24.08;;;;;;;-1.75;100.00;101691.59;5041023;28;20514;-55
2024/01/13 08:15:58;;;;;;;24.10;22.40;;;;;;;-1.01;100.00;101682.19;5040485;28;20037;-56
2024/01/13 08:18:24;;;;;;;28.27;26.48;;;;;;;-1.89;100.00;101692.50;5044326;28;20518;-55
2024/01/13 08:20:51;;;;;;;25.33;23.83;;;;;;;-1.47;100.00;101682.75;5043082;28;20068;-65
2024/01/13 08:23:19;;;;;;;26.77;24.88;;;;;;;-0.51;100.00;101683.00;5044722;28;20518;-56
2024/01/13 08:25:46;;;;;;;25.20;23.60;;;;;;;-0.86;100.00;101688.13;5047104;28;20057;-56
2024/01/13 08:28:13;;;;;;;26.10;24.20;;;;;;;-1.42;100.00;101676.31;5044565;28;20419;-64
2024/01/13 08:30:43;;;;;;;28.55;26.45;;;;;;;-1.14;100.00;101681.38;5045742;28;20666;-64
2024/01/13 08:33:12;;;;;;;27.92;25.73;;;;;;;-1.57;100.00;101689.50;5038837;28;20064;-56
2024/01/13 08:35:41;;;;;;;25.48;23.88;;;;;;;-0.72;100.00;101685.38;5045694;28;20053;-63
2024/01/13 08:38:08;;;;;;;26.77;25.08;;;;;;;-0.67;100.00;101685.84;5045711;28;20140;-56
2024/01/13 08:40:36;;;;;;;24.38;22.70;;;;;;;-1.83;100.00;101686.06;5044603;28;20045;-55
2024/01/13 08:43:04;;;;;;;22.08;20.58;;;;;;;-1.20;100.00;101675.66;5045528;28;20061;-56
2024/01/13 08:45:30;;;;;;;23.83;22.13;;;;;;;-0.28;100.00;101673.50;5044969;28;20216;-55
2024/01/13 08:47:58;;;;;;;23.88;22.27;;;;;;;-1.09;100.00;101672.31;5041886;28;20049;-56
2024/01/13 08:50:24;;;;;;;23.88;22.27;;;;;;;-0.85;100.00;101663.69;5039860;28;20132;-56
2024/01/13 08:52:55;;;;;;;23.15;21.60;;;;;;;-0.56;100.00;101654.63;5045074;28;20060;-64
2024/01/13 08:55:22;;;;;;;22.58;21.08;;;;;;;-0.48;100.00;101654.91;5040468;28;20144;-63
2024/01/13 08:57:50;;;;;;;23.63;22.13;;;;;;;0.21;100.00;101654.19;5044698;28;20473;-64
2024/01/13 09:00:18;;;;;;;26.00;23.55;;;;;;;-0.60;100.00;101644.53;5040919;28;20057;-56
2024/01/13 09:02:46;;;;;;;22.33;20.83;;;;;;;-1.18;100.00;101654.69;5045378;28;20059;-55
2024/01/13 09:05:13;;;;;;;24.83;23.23;;;;;;;0.18;100.00;101641.34;5042793;28;20052;-56
2024/01/13 09:07:39;;;;;;;24.10;22.50;;;;;;;0.58;100.00;101643.56;5044631;28;20453;-55
2024/01/13 09:10:07;;;;;;;23.52;22.13;;;;;;;0.75;100.00;101634.41;5047171;28;20057;-56
2024/01/13 09:12:34;;;;;;;24.70;23.10;;;;;;;0.94;100.00;101633.78;5046824;28;20585;-56
2024/01/13 09:15:05;;;;;;;23.67;22.13;;;;;;;1.57;100.00;101625.19;5049680;28;20577;-57
2024/01/13 09:17:31;;;;;;;25.30;23.60;;;;;;;0.88;100.00;101635.94;5042871;28;20049;-63
2024/01/13 09:19:58;;;;;;;22.92;21.52;;;;;;;0.85;100.00;101615.25;5047083;28;20049;-63
2024/01/13 09:22:25;;;;;;;25.35;23.55;;;;;;;0.95;100.00;101617.16;5040591;28;20041;-56
2024/01/13 09:24:52;;;;;;;25.10;23.50;;;;;;;1.01;100.00;101614.06;5045029;28;20053;-63
2024/01/13 09:27:19;;;;;;;24.73;23.10;;;;;;;1.03;100.00;101604.28;5045188;28;20507;-63
2024/01/13 09:29:46;;;;;;;23.83;22.23;;;;;;;0.89;100.00;101606.22;5045477;28;20055;-55
2024/01/13 09:32:14;;;;;;;24.77;23.08;;;;;;;2.61;100.00;101604.31;5045463;28;20049;-56
2024/01/13 09:34:41;;;;;;;26.02;24.25;;;;;;;2.33;100.00;101583.09;5042891;28;20063;-56
2024/01/13 09:37:10;;;;;;;28.05;26.00;;;;;;;3.06;100.00;101588.97;5047249;28;20049;-63
2024/01/13 09:39:37;;;;;;;29.02;27.23;;;;;;;1.94;100.00;101582.88;5046574;28;20060;-63
2024/01/13 09:42:04;;;;;;;27.40;25.27;;;;;;;1.69;100.00;101583.22;5046441;28;20470;-63
2024/01/13 09:44:32;;;;;;;25.08;23.38;;;;;;;1.36;100.00;101587.66;5046855;28;20048;-56
2024/01/13 09:47:00;;;;;;;30.35;25.65;;;;;;;1.55;100.00;101574.72;5047143;28;20111;-55
2024/01/13 09:49:30;;;;;;;23.40;21.70;;;;;;;2.21;100.00;101579.72;5043071;28;20313;-63
2024/01/13 09:51:57;;;;;;;24.58;22.77;;;;;;;1.50;100.00;101589.16;5046230;28;20437;-63
2024/01/13 09:54:26;;;;;;;28.65;26.73;;;;;;;1.50;100.00;101587.34;5041279;28;20049;-63
2024/01/13 09:56:53;;;;;;;28.77;26.88;;;;;;;1.53;100.00;101583.66;5046869;28;20057;-63
2024/01/13 09:59:22;;;;;;;28.48;26.52;;;;;;;1.32;100.00;101583.63;5046853;28;20494;-63
2024/01/13 10:01:50;;;;;;;27.52;25.73;;;;;;;1.54;100.00;101582.69;5046672;28;20060;-63
2024/01/13 10:04:16;;;;;;;30.75;28.85;;;;;;;2.18;100.00;101568.63;5047843;28;20053;-63
2024/01/13 10:06:47;;;;;;;28.88;26.88;;;;;;;1.83;100.00;101568.03;5047694;28;20049;-55
2024/01/13 10:09:14;;;;;;;27.90;26.20;;;;;;;2.20;100.00;101559.69;5047765;28;20049;-65
2024/01/13 10:11:41;;;;;;;29.45;27.55;;;;;;;0.82;100.00;101560.56;5047567;28;20351;-64
2024/01/13 10:14:10;;;;;;;33.97;31.67;;;;;;;2.64;100.00;101565.53;5048084;28;20057;-63
2024/01/13 10:16:37;;;;;;;35.10;32.72;;;;;;;2.83;100.00;101571.78;5047880;28;20088;-55
2024/01/13 10:19:06;;;;;;;26.10;24.20;;;;;;;1.94;100.00;101564.53;5048031;28;20041;-56
2024/01/13 10:21:33;;;;;;;25.60;23.60;;;;;;;1.93;100.00;101565.47;5046757;28;20061;-63
2024/01/13 10:24:02;;;;;;;27.75;25.75;;;;;;;2.88;100.00;101553.84;5047945;28;20049;-63
2024/01/13 10:26:31;;;;;;;28.42;26.52;;;;;;;3.90;100.00;101556.88;5046882;28;20053;-56
2024/01/13 10:28:59;;;;;;;26.70;24.90;;;;;;;2.22;100.00;101563.00;5047550;28;20081;-55
2024/01/13 10:31:26;;;;;;;28.23;26.33;;;;;;;2.75;100.00;101559.31;5043802;28;20494;-63
2024/01/13 10:33:54;;;;;;;28.85;26.95;;;;;;;3.18;100.00;101548.50;5047368;28;20083;-63
2024/01/13 10:36:22;;;;;;;25.70;24.00;;;;;;;4.08;100.00;101563.03;5047311;28;20059;-56
2024/01/13 10:38:49;;;;;;;29.13;27.13;;;;;;;2.20;100.00;101551.00;5047337;28;20522;-63
2024/01/13 10:41:24;;;;;;;28.50;26.27;;;;;;;3.12;100.00;101537.72;5038925;28;20583;-63
2024/01/13 10:43:55;;;;;;;26.42;23.80;;;;;;;3.55;100.00;101549.63;5047445;28;20503;-63
2024/01/13 10:46:25;;;;;;;25.08;23.17;;;;;;;4.18;100.00;101547.28;5047716;28;20487;-64
2024/01/13 10:48:59;;;;;;;26.50;24.60;;;;;;;4.20;100.00;101540.03;5047784;28;20077;-64
2024/01/13 10:51:34;;;;;;;27.52;25.73;;;;;;;3.50;100.00;101547.38;5047095;28;20138;-63
2024/01/13 10:54:02;;;;;;;30.77;28.77;;;;;;;3.26;100.00;101534.69;5047442;28;20053;-55
2024/01/13 10:56:31;;;;;;;32.67;30.48;;;;;;;2.71;100.00;101537.78;5045584;28;20057;-63
2024/01/13 10:58:59;;;;;;;28.75;26.35;;;;;;;3.20;100.00;101535.22;5046039;28;20057;-56
2024/01/13 11:01:26;;;;;;;27.85;25.85;;;;;;;3.50;100.00;101528.19;5046794;28;20071;-55
2024/01/13 11:03:54;;;;;;;29.80;27.88;;;;;;;2.20;100.00;101530.84;5039412;28;20050;-56